This is the latest recevied weather packets stored in our database for station/object G6UIM. If no packets are shown the sender has not sent any weather packets the latest 10 day(s).
| Time | Temp. | Humidity | Pressure | Rain* | Wind** | Luminosity | Snow |
|---|---|---|---|---|---|---|---|
| 1777593617 | 12.22° C | 83% | 1019.4 hPa | 0 mm | - | 0 W/m² | - |
| 1777588237 | 12.78° C | 79% | 1019.5 hPa | 0 mm | - | 0 W/m² | - |
| 1777574417 | 13.33° C | 77% | 1018.7 hPa | 0 mm | - | 29 W/m² | - |
| 1777561816 | 14.44° C | 76% | 1019.3 hPa | 0 mm | - | 657 W/m² | - |
| 1777560016 | 12.78° C | 78% | 1019.2 hPa | 0 mm | - | 214 W/m² | - |
| 1777559436 | 13.33° C | 77% | 1019.3 hPa | 0 mm | - | 189 W/m² | - |
| 1777557616 | 13.33° C | 77% | 1019.4 hPa | 0 mm | - | 409 W/m² | - |
| 1777556416 | 12.78° C | 77% | 1019.3 hPa | 0 mm | - | 358 W/m² | - |
| 1777551616 | 11.67° C | 80% | 1019 hPa | 0 mm | - | 73 W/m² | - |
| 1777551037 | 12.22° C | 80% | 1019.2 hPa | 0 mm | - | 80 W/m² | - |
| 1777548016 | 12.78° C | 78% | 1019.1 hPa | 0 mm | - | 187 W/m² | - |
| 1777545016 | 13.89° C | 77% | 1019.3 hPa | 0 mm | - | 396 W/m² | - |
| 1777544416 | 13.89° C | 77% | 1019.5 hPa | 0 mm | - | 557 W/m² | - |
| 1777542616 | 13.89° C | 77% | 1019.6 hPa | 0 mm | - | 819 W/m² | - |
| 1777536616 | 13.33° C | 77% | 1019.1 hPa | 0 mm | - | 261 W/m² | - |
| 1777531816 | 13.33° C | 77% | 1019 hPa | 0 mm | - | 209 W/m² | - |
| 1777528817 | 12.78° C | 78% | 1018.9 hPa | 0 mm | - | 49 W/m² | - |
| 1777526418 | 12.78° C | 78% | 1018.6 hPa | 0 mm | - | 34 W/m² | - |
| 1777525217 | 12.78° C | 77% | 1018.6 hPa | 0 mm | - | 12 W/m² | - |
| 1777523417 | 12.78° C | 77% | 1018.5 hPa | 0 mm | - | 0 W/m² | - |
| 1777521017 | 12.78° C | 77% | 1018.4 hPa | 0 mm | - | 0 W/m² | - |
| 1777518618 | 12.78° C | 77% | 1018.3 hPa | 0 mm | - | 0 W/m² | - |
| 1777517417 | 13.33° C | 76% | 1018.4 hPa | 0 mm | - | 0 W/m² | - |
| 1777514418 | 13.33° C | 74% | 1018.8 hPa | 0 mm | - | 0 W/m² | - |
| 1777506617 | 12.78° C | 75% | 1019.3 hPa | 0 mm | - | 0 W/m² | - |
* Rain latest hour (hover to see other rain measurements)
** Current wind speed in m/s (hover to see current wind gust speed)